createdAt,value
2018-04-12T00:00:43.684Z,30.60
2018-04-12T00:03:09.790Z,26.97
2018-04-12T00:05:35.914Z,31.70
2018-04-12T00:08:02.026Z,32.00
2018-04-12T00:10:28.133Z,27.10
2018-04-12T00:12:54.241Z,24.47
2018-04-12T00:15:20.381Z,27.90
2018-04-12T00:17:47.259Z,28.00
2018-04-12T00:20:13.363Z,30.37
2018-04-12T00:22:39.482Z,34.23
2018-04-12T00:25:05.567Z,36.07
2018-04-12T00:27:32.405Z,33.83
2018-04-12T00:29:58.540Z,33.43
2018-04-12T00:32:24.667Z,27.10
2018-04-12T00:34:50.789Z,31.53
2018-04-12T00:37:16.897Z,32.70
2018-04-12T00:39:43.145Z,28.53
2018-04-12T00:42:09.242Z,34.87
2018-04-12T00:44:36.085Z,38.77
2018-04-12T00:47:02.200Z,39.27
2018-04-12T00:49:28.341Z,32.67
2018-04-12T00:51:54.437Z,36.90
2018-04-12T00:54:20.562Z,27.30
2018-04-12T00:56:47.408Z,30.20
2018-04-12T00:59:13.501Z,29.67
2018-04-12T01:01:39.639Z,32.50
2018-04-12T01:04:05.751Z,38.90
2018-04-12T01:06:31.869Z,22.43
2018-04-12T01:08:57.994Z,32.00
2018-04-12T01:11:24.097Z,29.47
2018-04-12T01:13:50.181Z,32.83
2018-04-12T01:16:17.049Z,31.23
2018-04-12T01:18:43.910Z,27.27
2018-04-12T01:21:10.021Z,32.43
2018-04-12T01:23:36.121Z,26.97
2018-04-12T01:26:02.233Z,27.10
2018-04-12T01:28:28.358Z,28.17
2018-04-12T01:30:55.237Z,28.43
2018-04-12T01:33:21.349Z,29.47
2018-04-12T01:35:48.249Z,34.70
2018-04-12T01:38:15.208Z,24.23
2018-04-12T01:40:41.606Z,27.30
2018-04-12T01:43:08.456Z,23.80
2018-04-12T01:45:35.306Z,22.67
2018-04-12T01:48:01.426Z,32.13
2018-04-12T01:50:27.547Z,24.93
2018-04-12T01:52:53.665Z,22.67
2018-04-12T01:55:19.817Z,29.90
2018-04-12T01:57:45.938Z,24.50
2018-04-12T02:00:12.049Z,25.43
2018-04-12T02:02:38.901Z,21.47
2018-04-12T02:05:05.042Z,26.73
2018-04-12T02:07:31.903Z,27.70
2018-04-12T02:09:58.755Z,27.33
2018-04-12T02:12:25.609Z,26.83
2018-04-12T02:14:52.510Z,23.03
2018-04-12T02:17:18.622Z,24.73
2018-04-12T02:19:44.702Z,23.63
2018-04-12T02:22:10.830Z,24.47
2018-04-12T02:24:36.914Z,24.83
2018-04-12T02:27:03.782Z,22.83
2018-04-12T02:29:30.614Z,26.00
2018-04-12T02:31:56.752Z,25.37
2018-04-12T02:34:22.906Z,17.60
2018-04-12T02:36:49.738Z,20.33
2018-04-12T02:39:15.869Z,22.83
2018-04-12T02:41:41.975Z,25.40
2018-04-12T02:44:08.121Z,23.23
2018-04-12T02:46:34.266Z,21.90
2018-04-12T02:49:00.373Z,22.07
2018-04-12T02:51:26.747Z,21.40
2018-04-12T02:53:52.840Z,20.17
2018-04-12T02:56:19.708Z,24.50
2018-04-12T02:58:46.580Z,20.93
2018-04-12T03:01:12.690Z,20.57
2018-04-12T03:03:39.567Z,23.20
2018-04-12T03:06:05.694Z,23.27
2018-04-12T03:08:31.785Z,24.93
2018-04-12T03:10:57.910Z,17.53
2018-04-12T03:13:24.021Z,19.60
2018-04-12T03:15:50.424Z,22.57
2018-04-12T03:18:16.524Z,25.57
2018-04-12T03:20:42.675Z,24.60
2018-04-12T03:23:08.801Z,21.07
2018-04-12T03:25:34.900Z,19.83
2018-04-12T03:28:01.008Z,26.87
2018-04-12T03:30:27.108Z,23.83
2018-04-12T03:32:53.257Z,25.00
2018-04-12T03:35:19.389Z,17.20
2018-04-12T03:37:45.523Z,22.63
2018-04-12T03:40:11.674Z,19.37
2018-04-12T03:42:37.819Z,24.60
2018-04-12T03:45:03.930Z,25.30
2018-04-12T03:47:30.059Z,22.97
2018-04-12T03:49:56.145Z,23.57
2018-04-12T03:52:22.268Z,18.77
2018-04-12T03:54:48.392Z,30.97
2018-04-12T03:57:14.525Z,35.93
2018-04-12T03:59:40.685Z,29.90
2018-04-12T04:02:06.809Z,17.77
2018-04-12T04:04:32.915Z,20.10
2018-04-12T04:06:59.819Z,25.43
2018-04-12T04:09:25.930Z,19.40
2018-04-12T04:11:52.749Z,16.77
2018-04-12T04:14:31.453Z,17.90
2018-04-12T04:17:10.488Z,19.33
2018-04-12T04:19:49.298Z,20.70
2018-04-12T04:22:15.400Z,17.40
2018-04-12T04:24:41.513Z,24.93
2018-04-12T04:27:07.665Z,18.00
2018-04-12T04:29:33.870Z,31.13
2018-04-12T04:32:00.016Z,30.77
2018-04-12T04:34:26.141Z,20.33
2018-04-12T04:36:52.249Z,21.60
2018-04-12T04:39:18.343Z,21.93
2018-04-12T04:41:44.453Z,22.20
2018-04-12T04:44:10.603Z,34.60
2018-04-12T04:46:36.718Z,23.10
2018-04-12T04:49:02.888Z,32.23
2018-04-12T04:51:29.822Z,26.60
2018-04-12T04:53:56.115Z,20.93
2018-04-12T04:56:22.342Z,28.23
2018-04-12T04:58:48.468Z,26.57
2018-04-12T05:01:14.595Z,23.27
2018-04-12T05:03:40.699Z,21.30
2018-04-12T05:06:07.633Z,18.00
2018-04-12T05:08:33.778Z,34.87
2018-04-12T05:10:59.955Z,31.27
2018-04-12T05:13:26.057Z,23.73
2018-04-12T05:15:52.196Z,19.23
2018-04-12T05:18:18.332Z,19.40
2018-04-12T05:20:44.484Z,20.97
2018-04-12T05:23:10.643Z,27.83
2018-04-12T05:25:36.776Z,19.50
2018-04-12T05:28:02.902Z,22.33
2018-04-12T05:30:29.031Z,17.87
2018-04-12T05:32:55.171Z,20.73
2018-04-12T05:35:21.282Z,24.23
2018-04-12T05:37:47.417Z,36.77
2018-04-12T05:40:13.537Z,23.47
2018-04-12T05:42:39.642Z,31.60
2018-04-12T05:45:06.527Z,24.50
2018-04-12T05:47:32.668Z,26.93
2018-04-12T05:49:58.765Z,23.53
2018-04-12T05:52:24.889Z,26.67
2018-04-12T05:54:50.991Z,33.77
2018-04-12T05:57:17.109Z,31.60
2018-04-12T05:59:46.057Z,27.43
2018-04-12T06:02:12.377Z,29.00
2018-04-12T06:04:38.537Z,25.43
2018-04-12T06:07:04.796Z,34.03
2018-04-12T06:09:30.919Z,34.13
2018-04-12T06:11:57.014Z,37.73
2018-04-12T06:14:23.134Z,30.50
2018-04-12T06:16:49.988Z,32.43
2018-04-12T06:19:16.886Z,28.50
2018-04-12T06:21:42.985Z,29.20
2018-04-12T06:24:09.871Z,37.90
2018-04-12T06:26:35.988Z,44.57
2018-04-12T06:29:02.851Z,36.83
2018-04-12T06:31:29.702Z,35.47
2018-04-12T06:33:55.846Z,31.93
2018-04-12T06:36:22.691Z,43.53
2018-04-12T06:38:49.536Z,38.57
2018-04-12T06:41:15.713Z,40.50
2018-04-12T06:43:41.806Z,69.90
2018-04-12T06:46:10.663Z,33.80
2018-04-12T06:48:36.927Z,52.50
2018-04-12T06:51:03.046Z,54.23
2018-04-12T06:53:29.172Z,48.70
2018-04-12T06:55:55.330Z,47.13
2018-04-12T06:58:21.490Z,34.97
2018-04-12T07:00:47.655Z,44.10
2018-04-12T07:03:13.818Z,39.97
2018-04-12T07:05:40.147Z,57.20
2018-04-12T07:08:06.261Z,43.73
2018-04-12T07:10:32.380Z,41.97
2018-04-12T07:12:58.519Z,40.03
2018-04-12T07:15:24.606Z,36.17
2018-04-12T07:17:51.530Z,37.60
2018-04-12T07:20:17.646Z,33.80
2018-04-12T07:22:43.773Z,40.77
2018-04-12T07:25:09.901Z,47.47
2018-04-12T07:27:36.049Z,44.03
2018-04-12T07:30:02.172Z,42.83
2018-04-12T07:32:28.290Z,50.97
2018-04-12T07:34:55.145Z,43.43
2018-04-12T07:37:21.289Z,47.20
2018-04-12T07:39:48.194Z,56.73
2018-04-12T07:42:14.360Z,50.70
2018-04-12T07:44:40.473Z,46.03
2018-04-12T07:47:06.598Z,52.93
2018-04-12T07:49:32.718Z,50.83
2018-04-12T07:51:58.840Z,65.27
2018-04-12T07:54:24.997Z,67.93
2018-04-12T07:56:51.131Z,54.37
2018-04-12T07:59:17.265Z,59.93
2018-04-12T08:01:43.432Z,64.60
2018-04-12T08:04:10.306Z,61.03
2018-04-12T08:06:36.581Z,66.97
2018-04-12T08:09:02.745Z,65.17
2018-04-12T08:11:28.909Z,75.77
2018-04-12T08:13:55.005Z,73.77
2018-04-12T08:16:21.956Z,66.07
2018-04-12T08:18:48.787Z,72.67
2018-04-12T08:21:14.910Z,66.63
2018-04-12T08:23:41.097Z,74.27
2018-04-12T08:26:07.272Z,78.77
2018-04-12T08:28:34.152Z,83.17
2018-04-12T08:31:00.310Z,72.70
2018-04-12T08:33:26.798Z,75.60
2018-04-12T08:35:52.937Z,92.43
2018-04-12T08:38:19.047Z,78.10
2018-04-12T08:40:45.173Z,82.07
2018-04-12T08:43:11.303Z,91.10
2018-04-12T08:45:37.414Z,86.40
2018-04-12T08:48:04.274Z,101.07
2018-04-12T08:50:30.379Z,95.60
2018-04-12T08:52:57.285Z,99.00
2018-04-12T08:55:23.411Z,103.57
2018-04-12T08:57:49.588Z,103.57
2018-04-12T09:00:15.702Z,116.03
2018-04-12T09:02:41.856Z,99.80
2018-04-12T09:05:07.969Z,102.10
2018-04-12T09:07:34.062Z,100.53
2018-04-12T09:10:00.947Z,93.50
2018-04-12T09:12:27.035Z,93.53
2018-04-12T09:14:53.235Z,96.17
2018-04-12T09:17:19.350Z,94.47
2018-04-12T09:19:45.473Z,87.23
2018-04-12T09:22:12.322Z,95.90
2018-04-12T09:24:38.490Z,89.00
2018-04-12T09:27:04.696Z,87.30
2018-04-12T09:29:30.777Z,96.80
2018-04-12T09:31:56.996Z,97.83
2018-04-12T09:34:23.131Z,88.63
2018-04-12T09:36:50.217Z,84.83
2018-04-12T09:39:16.391Z,92.10
2018-04-12T09:41:43.607Z,91.93
2018-04-12T09:44:09.720Z,99.40
2018-04-12T09:46:35.853Z,89.77
2018-04-12T09:49:02.013Z,94.13
2018-04-12T09:51:28.137Z,97.13
2018-04-12T09:53:55.006Z,85.43
2018-04-12T09:56:21.140Z,90.53
2018-04-12T09:58:47.256Z,97.07
2018-04-12T10:01:14.223Z,86.20
2018-04-12T10:03:43.129Z,89.90
2018-04-12T10:06:10.084Z,81.13
2018-04-12T10:08:36.264Z,81.60
2018-04-12T10:11:02.408Z,74.67
2018-04-12T10:13:28.496Z,76.57
2018-04-12T10:15:54.645Z,88.93
2018-04-12T10:18:20.756Z,79.77
2018-04-12T10:20:46.885Z,81.90
2018-04-12T10:23:12.981Z,74.13
2018-04-12T10:25:40.259Z,85.63
2018-04-12T10:28:06.389Z,81.73
2018-04-12T10:30:32.524Z,69.87
2018-04-12T10:32:59.447Z,76.97
2018-04-12T10:35:25.609Z,72.33
2018-04-12T10:37:51.753Z,78.10
2018-04-12T10:40:18.625Z,69.93
2018-04-12T10:42:44.820Z,73.50
2018-04-12T10:45:11.780Z,77.83
2018-04-12T10:47:37.931Z,80.10
2018-04-12T10:50:04.111Z,69.50
2018-04-12T10:52:30.267Z,71.03
2018-04-12T10:54:56.388Z,79.87
2018-04-12T10:57:22.502Z,74.40
2018-04-12T10:59:48.641Z,73.23
2018-04-12T11:02:15.510Z,66.53
2018-04-12T11:04:41.933Z,74.93
2018-04-12T11:07:08.837Z,60.03
2018-04-12T11:09:34.992Z,56.37
2018-04-12T11:12:01.137Z,55.00
2018-04-12T11:14:27.298Z,55.60
2018-04-12T11:16:53.450Z,66.83
2018-04-12T11:19:23.982Z,58.97
2018-04-12T11:21:50.181Z,64.13
2018-04-12T11:24:16.412Z,62.30
2018-04-12T11:26:43.467Z,52.23
2018-04-12T11:29:09.610Z,55.20
2018-04-12T11:31:36.186Z,67.27
2018-04-12T11:34:02.350Z,68.37
2018-04-12T11:36:28.506Z,69.77
2018-04-12T11:38:55.474Z,67.73
2018-04-12T11:41:21.683Z,71.10
2018-04-12T11:43:48.117Z,60.83
2018-04-12T11:46:14.276Z,58.47
2018-04-12T11:48:40.545Z,54.70
2018-04-12T11:51:07.619Z,54.33
2018-04-12T11:53:34.565Z,53.97
2018-04-12T11:56:00.733Z,56.10
2018-04-12T11:58:27.149Z,50.30
2018-04-12T12:00:53.387Z,61.93
2018-04-12T12:03:21.218Z,48.90
2018-04-12T12:05:47.798Z,56.40
2018-04-12T12:08:13.945Z,62.00
2018-04-12T12:10:40.793Z,49.13
2018-04-12T12:13:07.705Z,51.63
2018-04-12T12:15:33.878Z,55.87
2018-04-12T12:18:00.014Z,47.37
2018-04-12T12:20:26.185Z,50.10
2018-04-12T12:22:53.059Z,46.90
2018-04-12T12:25:19.184Z,58.27
2018-04-12T12:27:45.416Z,44.80
2018-04-12T12:30:12.297Z,45.93
2018-04-12T12:32:38.429Z,49.73
2018-04-12T12:35:04.785Z,51.33
2018-04-12T12:37:31.058Z,54.40
2018-04-12T13:06:19.138Z,48.97
2018-04-12T13:08:45.328Z,42.27
2018-04-12T13:11:12.246Z,54.00
2018-04-12T13:13:38.414Z,47.70
2018-04-12T13:16:04.718Z,50.97
2018-04-12T13:18:32.119Z,48.83
2018-04-12T13:20:58.242Z,52.33
2018-04-12T13:23:24.478Z,53.70
2018-04-12T13:25:50.597Z,47.90
2018-04-12T13:28:16.767Z,47.50
2018-04-12T13:30:42.958Z,44.90
2018-04-12T13:33:09.159Z,48.10
2018-04-12T13:35:35.286Z,44.60
2018-04-12T13:38:01.409Z,49.90
2018-04-12T13:40:27.495Z,43.47
2018-04-12T13:42:54.382Z,46.50
2018-04-12T13:45:20.531Z,49.10
2018-04-12T13:47:46.717Z,47.63
2018-04-12T13:50:12.862Z,45.80
2018-04-12T13:52:47.893Z,52.40
2018-04-12T13:55:14.775Z,45.33
2018-04-12T14:15:43.805Z,40.90
2018-04-12T14:18:14.830Z,41.40
2018-04-12T14:20:45.222Z,38.47
2018-04-12T14:44:01.272Z,27.40
2018-04-12T14:46:30.038Z,33.67
2018-04-12T14:51:34.503Z,24.60
2018-04-12T14:54:19.088Z,29.50
2018-04-12T14:56:42.952Z,21.50
2018-04-12T14:59:11.627Z,27.50
2018-04-12T15:01:39.385Z,21.00
2018-04-12T15:06:39.425Z,25.50
2018-04-12T15:11:52.140Z,31.30
2018-04-12T15:14:18.796Z,27.90
2018-04-12T15:16:45.376Z,22.63
2018-04-12T15:19:12.531Z,20.50
2018-04-12T15:21:39.367Z,26.70
2018-04-12T15:24:11.517Z,29.47
2018-04-12T15:26:39.557Z,20.70
2018-04-12T15:29:06.563Z,24.60
2018-04-12T15:52:20.002Z,20.13
2018-04-12T15:57:49.986Z,16.00
2018-04-12T16:06:10.575Z,17.93
2018-04-12T16:08:38.829Z,17.90
2018-04-12T16:11:06.874Z,16.60
2018-04-12T16:13:37.989Z,22.37
2018-04-12T16:16:06.619Z,25.77
2018-04-12T16:21:41.921Z,20.47
2018-04-12T16:27:04.780Z,15.33
2018-04-12T16:50:52.449Z,13.63
2018-04-12T16:53:21.783Z,14.10
2018-04-12T17:08:03.908Z,23.50
2018-04-12T17:10:33.551Z,25.00
2018-04-12T19:59:43.333Z,20.70
2018-04-12T20:02:09.478Z,22.03
2018-04-12T20:04:35.615Z,19.93
2018-04-12T20:07:01.731Z,30.87
2018-04-12T20:09:28.597Z,22.00
2018-04-12T20:11:54.699Z,23.80
2018-04-12T20:14:20.891Z,29.73
2018-04-12T20:16:49.731Z,26.43
2018-04-12T20:19:16.114Z,32.07
2018-04-12T20:21:42.228Z,19.97
2018-04-12T20:24:08.378Z,24.70
2018-04-12T20:26:34.553Z,33.10
2018-04-12T20:29:00.664Z,23.70
2018-04-12T20:31:26.805Z,24.80
2018-04-12T20:33:52.979Z,22.53
2018-04-12T20:42:24.821Z,20.57
2018-04-12T20:44:50.951Z,29.20
2018-04-12T20:47:17.066Z,25.43
2018-04-12T20:49:43.292Z,26.10
2018-04-12T20:52:09.401Z,25.80
2018-04-12T20:54:35.536Z,25.63
2018-04-12T20:57:01.635Z,27.53
2018-04-12T20:59:27.738Z,20.80
2018-04-12T21:01:53.858Z,20.70
2018-04-12T21:04:19.977Z,33.83
2018-04-12T21:06:46.101Z,24.70
2018-04-12T21:09:12.252Z,21.97
2018-04-12T21:11:38.410Z,24.87
2018-04-12T21:14:04.530Z,20.53
2018-04-12T21:16:30.641Z,31.60
2018-04-12T21:18:56.866Z,24.83
2018-04-12T21:21:22.971Z,26.80
2018-04-12T21:23:49.070Z,28.47
2018-04-12T21:26:15.245Z,19.90
2018-04-12T21:28:41.426Z,20.60
2018-04-12T21:31:07.537Z,24.90
2018-04-12T21:33:33.680Z,33.07
2018-04-12T21:35:59.791Z,27.27
2018-04-12T21:38:25.932Z,25.07
2018-04-12T21:40:52.022Z,25.60
2018-04-12T21:43:18.220Z,30.90
2018-04-12T21:45:44.379Z,35.27
2018-04-12T21:48:10.492Z,28.03
2018-04-12T21:50:36.625Z,24.00
2018-04-12T21:53:02.750Z,26.87
2018-04-12T21:55:29.017Z,28.00
2018-04-12T21:57:55.223Z,26.50
2018-04-12T22:00:21.381Z,30.63
2018-04-12T22:02:47.666Z,25.20
2018-04-12T22:05:13.996Z,22.70
2018-04-12T22:07:40.137Z,30.37
2018-04-12T22:10:06.334Z,31.83
2018-04-12T22:12:32.435Z,31.00
2018-04-12T22:14:59.327Z,28.80
2018-04-12T22:17:25.496Z,30.07
2018-04-12T22:19:51.769Z,32.40
2018-04-12T22:22:17.919Z,23.60
2018-04-12T22:24:44.038Z,29.40
2018-04-12T22:27:10.181Z,34.53
2018-04-12T22:29:36.452Z,30.57
2018-04-12T22:32:02.632Z,33.97
2018-04-12T22:37:32.196Z,22.33
2018-04-12T22:40:02.421Z,31.63
2018-04-12T22:51:42.754Z,28.93
2018-04-12T22:54:18.602Z,21.87
2018-04-12T22:56:48.414Z,29.43
2018-04-12T22:59:16.117Z,20.97
2018-04-12T23:01:45.156Z,26.07
2018-04-12T23:04:13.391Z,25.67
2018-04-12T23:06:40.574Z,32.73
2018-04-12T23:12:39.596Z,24.30
2018-04-12T23:38:54.017Z,31.83
2018-04-12T23:41:22.083Z,29.07
2018-04-12T23:43:49.406Z,29.60
2018-04-12T23:46:18.847Z,30.97
2018-04-12T23:48:46.283Z,41.57
2018-04-12T23:51:15.871Z,24.70
2018-04-12T23:53:42.362Z,28.77
2018-04-12T23:56:11.885Z,26.37
2018-04-12T23:58:38.563Z,26.53
